createdAt,value
2019-03-11T00:26:54.622Z,21.70
2019-03-11T00:29:24.967Z,21.80
2019-03-11T00:34:29.242Z,22.30
2019-03-11T00:36:59.810Z,21.70
2019-03-11T00:39:30.278Z,21.70
2019-03-11T00:42:00.740Z,21.60
2019-03-11T00:44:31.223Z,21.70
2019-03-11T00:47:01.689Z,21.60
2019-03-11T00:49:32.062Z,21.60
2019-03-11T00:54:42.416Z,21.60
2019-03-11T00:57:12.696Z,21.60
2019-03-11T00:59:43.252Z,21.60
2019-03-11T01:02:13.541Z,21.60
2019-03-11T01:04:43.851Z,21.60
2019-03-11T01:07:14.178Z,21.60
2019-03-11T01:09:44.528Z,21.60
2019-03-11T01:12:14.929Z,21.60
2019-03-11T01:14:46.528Z,21.60
2019-03-11T01:17:16.907Z,21.60
2019-03-11T01:22:41.892Z,21.60
2019-03-11T01:25:12.262Z,21.60
2019-03-11T01:27:42.690Z,21.60
2019-03-11T01:30:13.350Z,21.60
2019-03-11T01:32:43.807Z,21.60
2019-03-11T01:35:14.053Z,21.60
2019-03-11T01:37:44.524Z,21.50
2019-03-11T01:40:15.033Z,21.50
2019-03-11T01:42:46.472Z,21.50
2019-03-11T01:45:16.947Z,21.60
2019-03-11T01:47:50.935Z,21.50
2019-03-11T01:50:21.247Z,21.50
2019-03-11T01:52:51.357Z,21.50
2019-03-11T01:55:21.637Z,21.50
2019-03-11T01:57:52.098Z,21.50
2019-03-11T02:02:54.954Z,21.40
2019-03-11T02:05:25.440Z,21.40
2019-03-11T02:07:55.803Z,21.50
2019-03-11T02:10:26.279Z,21.50
2019-03-11T02:12:56.667Z,21.50
2019-03-11T02:15:28.519Z,21.50
2019-03-11T02:17:55.464Z,21.50
2019-03-11T02:20:25.863Z,21.50
2019-03-11T02:25:57.620Z,21.50
2019-03-11T02:28:28.071Z,21.50
2019-03-11T02:30:58.526Z,21.50
2019-03-11T02:33:40.319Z,21.50
2019-03-11T02:36:30.073Z,21.50
2019-03-11T02:39:00.524Z,21.50
2019-03-11T02:41:32.639Z,21.50
2019-03-11T02:46:36.196Z,21.50
2019-03-11T02:49:06.525Z,21.50
2019-03-11T02:51:36.965Z,21.50
2019-03-11T02:54:07.317Z,21.50
2019-03-11T02:59:11.656Z,21.50
2019-03-11T03:01:59.421Z,21.50
2019-03-11T03:04:47.808Z,21.50
2019-03-11T03:07:18.155Z,21.40
2019-03-11T03:09:48.475Z,21.50
2019-03-11T03:12:18.837Z,21.50
2019-03-11T03:14:49.204Z,21.50
2019-03-11T03:17:19.584Z,21.40
2019-03-11T03:19:52.980Z,21.40
2019-03-11T03:22:23.466Z,21.40
2019-03-11T03:24:53.780Z,21.40
2019-03-11T03:27:24.292Z,21.50
2019-03-11T03:29:54.354Z,21.40
2019-03-11T03:32:24.801Z,21.40
2019-03-11T03:34:55.153Z,21.40
2019-03-11T03:37:25.576Z,21.40
2019-03-11T03:39:55.863Z,21.40
2019-03-11T03:42:29.559Z,21.40
2019-03-11T03:45:21.890Z,21.40
2019-03-11T03:47:59.008Z,21.40
2019-03-11T03:50:30.771Z,21.40
2019-03-11T03:53:01.212Z,21.40
2019-03-11T03:55:30.980Z,21.40
2019-03-11T03:58:00.056Z,21.40
2019-03-11T04:00:30.431Z,21.40
2019-03-11T04:03:00.855Z,21.40
2019-03-11T04:05:31.181Z,21.40
2019-03-11T04:08:01.618Z,21.40
2019-03-11T04:13:06.135Z,21.40
2019-03-11T04:18:08.652Z,21.40
2019-03-11T04:20:39.077Z,21.40
2019-03-11T04:23:09.381Z,21.40
2019-03-11T04:25:39.774Z,21.40
2019-03-11T04:28:12.874Z,21.40
2019-03-11T04:30:42.858Z,21.40
2019-03-11T04:33:13.260Z,21.40
2019-03-11T04:35:45.250Z,21.40
2019-03-11T04:38:15.574Z,21.40
2019-03-11T04:43:26.901Z,21.40
2019-03-11T04:45:56.189Z,21.40
2019-03-11T04:48:26.268Z,21.40
2019-03-11T04:50:57.457Z,21.40
2019-03-11T04:53:28.474Z,21.40
2019-03-11T04:55:59.185Z,21.40
2019-03-11T04:58:36.647Z,21.40
2019-03-11T05:01:07.010Z,21.40
2019-03-11T05:03:37.426Z,21.40
2019-03-11T05:11:18.296Z,21.30
2019-03-11T05:16:21.263Z,21.40
2019-03-11T05:21:36.865Z,21.40
2019-03-11T05:24:02.786Z,21.40
2019-03-11T05:26:33.181Z,21.30
2019-03-11T05:29:03.531Z,21.40
2019-03-11T05:31:33.957Z,21.30
2019-03-11T05:34:07.085Z,21.40
2019-03-11T05:36:40.986Z,21.40
2019-03-11T05:39:11.416Z,21.40
2019-03-11T05:42:00.970Z,21.40
2019-03-11T05:44:37.057Z,21.40
2019-03-11T05:47:07.280Z,21.40
2019-03-11T05:49:37.572Z,21.40
2019-03-11T05:52:07.889Z,21.40
2019-03-11T05:54:38.278Z,21.40
2019-03-11T05:57:08.691Z,21.40
2019-03-11T05:59:39.119Z,21.40
2019-03-11T06:02:09.448Z,21.40
2019-03-11T06:04:39.903Z,21.40
2019-03-11T06:07:10.227Z,21.40
2019-03-11T06:09:40.622Z,21.40
2019-03-11T06:12:11.060Z,21.40
2019-03-11T06:14:41.435Z,21.50
2019-03-11T06:19:40.265Z,21.50
2019-03-11T06:22:21.123Z,21.50
2019-03-11T06:24:52.483Z,21.50
2019-03-11T06:27:23.874Z,21.50
2019-03-11T06:29:54.344Z,21.50
2019-03-11T06:34:53.516Z,21.60
2019-03-11T06:37:23.907Z,21.50
2019-03-11T06:39:55.848Z,21.50
2019-03-11T06:42:27.423Z,21.60
2019-03-11T06:44:58.147Z,21.60
2019-03-11T06:47:28.945Z,21.60
2019-03-11T06:49:59.237Z,21.60
2019-03-11T06:52:30.743Z,21.60
2019-03-11T06:55:01.030Z,21.70
2019-03-11T07:00:48.486Z,21.70
2019-03-11T07:03:26.992Z,21.70
2019-03-11T07:08:45.095Z,21.60
2019-03-11T07:14:16.994Z,21.60
2019-03-11T07:16:48.016Z,21.40
2019-03-11T07:24:53.705Z,21.30
2019-03-11T07:27:31.425Z,21.30
2019-03-11T07:33:07.416Z,21.30
2019-03-11T07:38:21.882Z,21.30
2019-03-11T07:46:28.193Z,21.30
2019-03-11T07:52:02.646Z,21.20
2019-03-11T07:57:26.782Z,21.20
2019-03-11T08:00:14.909Z,21.20
2019-03-11T08:02:50.861Z,21.20
2019-03-11T08:05:53.494Z,21.20
2019-03-11T08:11:19.360Z,21.20
2019-03-11T08:19:21.977Z,21.20
2019-03-11T08:34:12.416Z,20.30
2019-03-11T08:45:31.479Z,20.70
2019-03-11T08:48:01.483Z,20.80
2019-03-11T08:50:32.001Z,20.90
2019-03-11T08:53:12.726Z,21.00
2019-03-11T09:07:10.393Z,21.20
2019-03-11T09:12:40.801Z,21.30
2019-03-11T09:15:52.938Z,21.30
2019-03-11T09:18:26.680Z,21.20
2019-03-11T09:21:04.786Z,21.10
2019-03-11T09:24:31.299Z,20.90
2019-03-11T09:35:35.967Z,20.90
2019-03-11T09:44:10.188Z,21.00
2019-03-11T09:50:50.096Z,21.10
2019-03-11T10:03:46.548Z,21.20
2019-03-11T10:06:34.705Z,21.30
2019-03-11T10:09:12.185Z,21.30
2019-03-11T10:11:50.665Z,21.30
2019-03-11T10:14:40.905Z,21.20
2019-03-11T10:20:08.411Z,20.90
2019-03-11T10:28:00.498Z,21.00
2019-03-11T10:33:50.696Z,21.20
2019-03-11T10:36:26.608Z,21.20
2019-03-11T10:47:16.541Z,21.40
2019-03-11T10:49:49.633Z,21.40
2019-03-11T10:52:19.999Z,21.40
2019-03-11T10:54:51.099Z,21.50
2019-03-11T10:57:21.547Z,21.50
2019-03-11T11:02:58.567Z,21.60
2019-03-11T11:05:53.574Z,21.70
2019-03-11T11:11:17.983Z,21.50
2019-03-11T11:13:56.630Z,21.30
2019-03-11T11:39:50.330Z,20.50
2019-03-11T11:42:33.429Z,20.60
2019-03-11T11:45:05.517Z,20.60
2019-03-11T11:47:36.847Z,20.80
2019-03-11T11:50:16.672Z,20.80
2019-03-11T11:55:29.305Z,20.80
2019-03-11T12:03:41.206Z,20.90
2019-03-11T12:06:12.249Z,20.90
2019-03-11T12:08:55.160Z,20.90
2019-03-11T12:11:26.005Z,20.90
2019-03-11T12:14:19.029Z,20.90
2019-03-11T12:16:50.801Z,20.80
2019-03-11T12:22:36.321Z,20.90
2019-03-11T12:25:11.847Z,21.00
2019-03-11T12:27:53.525Z,21.00
2019-03-11T12:33:16.734Z,21.10
2019-03-11T12:35:54.515Z,21.20
2019-03-11T12:38:28.664Z,21.30
2019-03-11T12:40:58.170Z,21.30
2019-03-11T12:43:31.348Z,21.30
2019-03-11T12:46:07.687Z,21.40
2019-03-11T12:48:40.040Z,21.40
2019-03-11T12:51:10.523Z,21.50
2019-03-11T12:58:46.815Z,21.60
2019-03-11T13:01:22.142Z,21.60
2019-03-11T13:03:55.172Z,21.70
2019-03-11T13:06:28.077Z,21.60
2019-03-11T13:08:58.791Z,21.60
2019-03-11T13:11:29.784Z,21.60
2019-03-11T13:14:01.541Z,21.60
2019-03-11T13:16:32.122Z,21.60
2019-03-11T13:19:12.763Z,21.60
2019-03-11T13:21:38.509Z,21.60
2019-03-11T13:24:09.785Z,21.60
2019-03-11T13:26:41.470Z,21.60
2019-03-11T13:29:12.006Z,21.60
2019-03-11T13:31:42.520Z,21.60
2019-03-11T13:34:13.236Z,21.60
2019-03-11T13:36:43.626Z,21.60
2019-03-11T13:39:14.163Z,21.60
2019-03-11T13:44:20.718Z,21.60
2019-03-11T13:47:27.373Z,21.60
2019-03-11T13:52:56.252Z,21.70
2019-03-11T13:55:38.195Z,21.60
2019-03-11T14:04:08.913Z,21.70
2019-03-11T14:06:43.721Z,21.70
2019-03-11T14:09:21.915Z,21.80
2019-03-11T14:11:47.007Z,21.80
2019-03-11T14:16:56.982Z,21.90
2019-03-11T14:19:29.710Z,21.90
2019-03-11T14:22:00.564Z,22.00
2019-03-11T14:24:31.114Z,22.00
2019-03-11T14:27:01.626Z,22.00
2019-03-11T14:29:33.899Z,22.00
2019-03-11T14:32:10.586Z,22.00
2019-03-11T14:37:14.057Z,22.00
2019-03-11T14:39:51.656Z,22.10
2019-03-11T14:42:48.744Z,22.10
2019-03-11T14:45:19.344Z,22.10
2019-03-11T14:48:10.560Z,22.10
2019-03-11T14:50:45.431Z,22.10
2019-03-11T14:53:17.697Z,22.10
2019-03-11T14:55:52.533Z,22.10
2019-03-11T15:01:30.832Z,22.10
2019-03-11T15:06:46.659Z,22.20
2019-03-11T15:09:17.744Z,22.20
2019-03-11T15:12:03.801Z,22.00
2019-03-11T15:14:23.752Z,22.20
2019-03-11T15:16:54.037Z,22.20
2019-03-11T15:19:24.640Z,22.20
2019-03-11T15:21:55.168Z,22.20
2019-03-11T15:24:25.656Z,22.20
2019-03-11T15:26:56.112Z,22.20
2019-03-11T15:29:26.536Z,22.20
2019-03-11T15:31:57.644Z,22.20
2019-03-11T15:34:28.102Z,22.20
2019-03-11T15:36:58.526Z,22.20
2019-03-11T15:39:28.974Z,22.20
2019-03-11T15:41:59.280Z,22.20
2019-03-11T15:44:29.857Z,22.20
2019-03-11T15:47:00.198Z,22.20
2019-03-11T15:49:30.566Z,22.20
2019-03-11T15:52:00.967Z,22.20
2019-03-11T15:54:31.472Z,22.20
2019-03-11T15:57:02.020Z,22.20
2019-03-11T15:59:32.491Z,22.20
2019-03-11T16:02:03.114Z,22.20
2019-03-11T16:04:33.449Z,22.20
2019-03-11T16:07:09.711Z,22.20
2019-03-11T16:09:40.008Z,22.20
2019-03-11T16:12:10.301Z,22.20
2019-03-11T16:14:59.740Z,22.20
2019-03-11T16:17:30.064Z,22.20
2019-03-11T16:20:00.454Z,22.20
2019-03-11T16:22:30.678Z,22.20
2019-03-11T16:25:01.113Z,22.20
2019-03-11T16:27:31.717Z,22.20
2019-03-11T16:30:26.191Z,22.10
2019-03-11T16:33:24.016Z,22.10
2019-03-11T16:35:35.494Z,22.10
2019-03-11T16:38:14.144Z,22.10
2019-03-11T16:43:20.715Z,22.10
2019-03-11T16:48:31.107Z,22.10
2019-03-11T16:53:52.928Z,22.10
2019-03-11T16:56:15.214Z,22.10
2019-03-11T17:01:17.210Z,22.10
2019-03-11T17:04:05.983Z,22.10
2019-03-11T17:06:36.325Z,22.10
2019-03-11T17:09:07.303Z,22.00
2019-03-11T17:11:39.308Z,22.10
2019-03-11T17:14:09.754Z,22.10
2019-03-11T17:16:40.079Z,22.00
2019-03-11T17:19:10.458Z,22.00
2019-03-11T17:21:40.742Z,22.00
2019-03-11T17:24:11.138Z,22.10
2019-03-11T17:26:42.561Z,22.10
2019-03-11T17:29:12.973Z,22.10
2019-03-11T17:31:43.300Z,22.10
2019-03-11T17:34:13.615Z,22.10
2019-03-11T17:36:44.165Z,22.10
2019-03-11T17:39:14.606Z,22.10
2019-03-11T17:41:44.964Z,22.10
2019-03-11T17:44:15.437Z,22.10
2019-03-11T17:46:45.855Z,22.10
2019-03-11T17:49:16.314Z,22.10
2019-03-11T17:51:46.859Z,22.10
2019-03-11T17:54:17.375Z,22.10
2019-03-11T17:56:47.815Z,22.10
2019-03-11T17:59:18.211Z,22.10
2019-03-11T18:01:48.712Z,22.10
2019-03-11T18:04:19.142Z,22.10
2019-03-11T18:06:49.596Z,22.20
2019-03-11T18:09:20.025Z,22.10
2019-03-11T18:11:50.424Z,22.10
2019-03-11T18:14:20.862Z,22.10
2019-03-11T18:16:51.267Z,22.10
2019-03-11T18:19:21.622Z,22.10
2019-03-11T18:21:51.996Z,22.10
2019-03-11T18:24:25.279Z,22.10
2019-03-11T18:26:55.589Z,22.10
2019-03-11T18:29:28.270Z,22.10
2019-03-11T18:32:02.227Z,22.10
2019-03-11T18:34:31.882Z,22.10
2019-03-11T18:37:02.329Z,22.10
2019-03-11T18:39:35.505Z,22.10
2019-03-11T18:42:05.886Z,22.10
2019-03-11T18:44:36.229Z,22.10
2019-03-11T18:47:06.588Z,22.10
2019-03-11T18:49:36.918Z,22.10
2019-03-11T18:52:11.154Z,22.10
2019-03-11T18:54:41.527Z,22.10
2019-03-11T18:57:11.859Z,22.10
2019-03-11T18:59:42.339Z,22.10
2019-03-11T19:02:12.646Z,22.10
2019-03-11T19:04:43.063Z,22.10
2019-03-11T19:07:13.533Z,22.10
2019-03-11T19:09:44.000Z,22.10
2019-03-11T19:12:14.515Z,22.10
2019-03-11T19:14:46.694Z,22.10
2019-03-11T19:17:17.196Z,22.10
2019-03-11T19:19:47.600Z,22.10
2019-03-11T19:22:17.867Z,22.10
2019-03-11T19:24:48.547Z,22.10
2019-03-11T19:27:18.953Z,22.10
2019-03-11T19:29:49.231Z,22.10
2019-03-11T19:32:19.658Z,22.10
2019-03-11T19:34:49.949Z,22.10
2019-03-11T19:37:20.554Z,22.10
2019-03-11T19:39:50.878Z,22.10
2019-03-11T19:42:21.340Z,22.10
2019-03-11T19:44:51.631Z,22.10
2019-03-11T19:47:21.931Z,22.10
2019-03-11T19:49:52.225Z,22.10
2019-03-11T19:52:22.508Z,22.10
2019-03-11T19:54:52.835Z,22.10
2019-03-11T19:57:23.246Z,22.10
2019-03-11T19:59:53.780Z,22.10
2019-03-11T20:02:24.488Z,22.10
2019-03-11T20:04:54.930Z,22.10
2019-03-11T20:07:25.236Z,22.10
2019-03-11T20:09:55.518Z,22.10
2019-03-11T20:12:26.066Z,22.10
2019-03-11T20:14:59.523Z,22.10
2019-03-11T20:17:29.956Z,22.10
2019-03-11T20:20:01.428Z,22.00
2019-03-11T20:22:32.243Z,22.10
2019-03-11T20:25:02.623Z,22.00
2019-03-11T20:27:33.170Z,22.00
2019-03-11T20:30:04.999Z,22.00
2019-03-11T20:32:36.593Z,22.00
2019-03-11T20:35:07.172Z,22.00
2019-03-11T20:37:37.480Z,22.00
2019-03-11T20:40:07.968Z,22.00
2019-03-11T20:42:38.403Z,22.00
2019-03-11T20:45:10.326Z,22.00
2019-03-11T20:47:40.621Z,22.00
2019-03-11T20:50:11.609Z,22.00
2019-03-11T20:52:41.954Z,22.00
2019-03-11T20:55:12.752Z,22.00
2019-03-11T20:57:43.179Z,22.00
2019-03-11T21:00:15.671Z,22.00
2019-03-11T21:02:46.282Z,22.00
2019-03-11T21:05:17.557Z,22.00
2019-03-11T21:07:47.962Z,22.00
2019-03-11T21:10:18.384Z,22.00
2019-03-11T21:12:48.901Z,22.00
2019-03-11T21:15:19.194Z,22.00
2019-03-11T21:17:49.675Z,22.00
2019-03-11T21:20:19.883Z,22.00
2019-03-11T21:22:50.231Z,22.00
2019-03-11T21:25:20.613Z,22.00
2019-03-11T21:27:51.176Z,22.00
2019-03-11T21:30:22.837Z,22.00
2019-03-11T21:32:53.308Z,22.00
2019-03-11T21:35:23.760Z,22.00
2019-03-11T21:37:54.108Z,22.00
2019-03-11T21:40:24.479Z,22.00
2019-03-11T21:42:55.066Z,21.90
2019-03-11T21:45:33.981Z,21.90
2019-03-11T21:47:57.554Z,21.90
2019-03-11T21:52:58.653Z,21.90
2019-03-11T21:55:28.940Z,21.90
2019-03-11T21:58:12.257Z,22.00
2019-03-11T22:00:35.087Z,21.90
2019-03-11T22:03:03.181Z,21.90
2019-03-11T22:05:33.571Z,21.90
2019-03-11T22:08:05.008Z,21.90
2019-03-11T22:10:35.220Z,21.90
2019-03-11T22:13:05.623Z,21.90
2019-03-11T22:15:35.955Z,21.90
2019-03-11T22:18:06.281Z,21.90
2019-03-11T22:20:36.623Z,21.90
2019-03-11T22:23:07.012Z,21.90
2019-03-11T22:25:37.323Z,21.90
2019-03-11T22:28:08.624Z,21.90
2019-03-11T22:30:38.967Z,21.90
2019-03-11T22:33:09.224Z,21.90
2019-03-11T22:35:39.548Z,21.90
2019-03-11T22:38:09.881Z,21.90
2019-03-11T22:40:40.065Z,21.90
2019-03-11T22:43:10.401Z,21.90
2019-03-11T22:45:40.683Z,21.90
2019-03-11T22:48:11.054Z,21.90
2019-03-11T22:50:41.278Z,21.90
2019-03-11T22:53:11.650Z,21.90
2019-03-11T22:55:42.085Z,21.90
2019-03-11T22:58:12.436Z,21.90
2019-03-11T23:01:00.803Z,21.80
2019-03-11T23:03:32.720Z,21.90
2019-03-11T23:06:03.096Z,21.80
2019-03-11T23:08:33.546Z,21.80
2019-03-11T23:11:03.870Z,21.80
2019-03-11T23:13:34.149Z,21.90
2019-03-11T23:16:04.531Z,21.90
2019-03-11T23:18:35.006Z,21.90
2019-03-11T23:21:05.335Z,21.80
2019-03-11T23:23:35.656Z,21.80
2019-03-11T23:26:06.029Z,21.80
2019-03-11T23:28:36.434Z,21.80
2019-03-11T23:31:06.780Z,21.80
2019-03-11T23:33:37.145Z,21.80
2019-03-11T23:36:07.571Z,21.80
2019-03-11T23:38:37.980Z,21.80
2019-03-11T23:41:08.366Z,21.80
2019-03-11T23:43:38.747Z,21.80
2019-03-11T23:46:09.153Z,21.80
2019-03-11T23:48:39.555Z,21.80
2019-03-11T23:51:13.625Z,21.70
2019-03-11T23:53:43.951Z,21.80
2019-03-11T23:56:14.339Z,21.80
2019-03-11T23:58:44.689Z,21.70
